sensor_id;sensor_type;location;lat;lon;timestamp;pressure;altitude;pressure_sealevel;temperature;humidity
36010;BME280;22076;52.182;5.404;2023-12-20T00:00:08;101793.88;;;13.39;100.00
36010;BME280;22076;52.182;5.404;2023-12-20T00:02:35;101793.72;;;13.25;100.00
36010;BME280;22076;52.182;5.404;2023-12-20T00:05:01;101791.94;;;12.92;100.00
36010;BME280;22076;52.182;5.404;2023-12-20T00:07:28;101785.47;;;13.32;100.00
36010;BME280;22076;52.182;5.404;2023-12-20T00:09:54;101781.91;;;13.33;100.00
36010;BME280;22076;52.182;5.404;2023-12-20T00:12:22;101787.47;;;13.45;100.00
36010;BME280;22076;52.182;5.404;2023-12-20T00:14:49;101787.56;;;13.26;100.00
36010;BME280;22076;52.182;5.404;2023-12-20T00:17:15;101781.19;;;13.14;100.00
36010;BME280;22076;52.182;5.404;2023-12-20T00:19:42;101778.91;;;13.23;100.00
36010;BME280;22076;52.182;5.404;2023-12-20T00:22:08;101773.16;;;13.33;100.00
36010;BME280;22076;52.182;5.404;2023-12-20T00:24:35;101771.03;;;13.23;100.00
36010;BME280;22076;52.182;5.404;2023-12-20T00:27:01;101778.00;;;13.25;100.00
36010;BME280;22076;52.182;5.404;2023-12-20T00:29:29;101773.91;;;13.19;100.00
36010;BME280;22076;52.182;5.404;2023-12-20T00:31:56;101779.38;;;13.32;100.00
36010;BME280;22076;52.182;5.404;2023-12-20T00:34:22;101778.69;;;13.28;100.00
36010;BME280;22076;52.182;5.404;2023-12-20T00:36:49;101785.63;;;13.29;100.00
36010;BME280;22076;52.182;5.404;2023-12-20T00:39:16;101781.22;;;13.30;100.00
36010;BME280;22076;52.182;5.404;2023-12-20T00:41:42;101781.00;;;13.34;100.00
36010;BME280;22076;52.182;5.404;2023-12-20T00:44:09;101777.91;;;13.26;100.00
36010;BME280;22076;52.182;5.404;2023-12-20T00:46:37;101778.38;;;13.34;100.00
36010;BME280;22076;52.182;5.404;2023-12-20T00:49:03;101787.72;;;13.22;100.00
36010;BME280;22076;52.182;5.404;2023-12-20T00:51:30;101777.50;;;13.34;100.00
36010;BME280;22076;52.182;5.404;2023-12-20T00:53:56;101777.78;;;13.12;100.00
36010;BME280;22076;52.182;5.404;2023-12-20T00:56:23;101774.00;;;13.17;100.00
36010;BME280;22076;52.182;5.404;2023-12-20T00:58:49;101780.66;;;13.07;100.00
36010;BME280;22076;52.182;5.404;2023-12-20T01:01:16;101775.63;;;13.02;100.00
36010;BME280;22076;52.182;5.404;2023-12-20T01:03:44;101775.75;;;13.17;100.00
36010;BME280;22076;52.182;5.404;2023-12-20T01:06:10;101773.84;;;13.03;100.00
36010;BME280;22076;52.182;5.404;2023-12-20T01:08:37;101766.16;;;13.00;100.00
36010;BME280;22076;52.182;5.404;2023-12-20T01:11:04;101756.66;;;12.97;100.00
36010;BME280;22076;52.182;5.404;2023-12-20T01:13:31;101763.84;;;12.94;100.00
36010;BME280;22076;52.182;5.404;2023-12-20T01:15:57;101759.78;;;12.88;100.00
36010;BME280;22076;52.182;5.404;2023-12-20T01:18:24;101761.00;;;12.98;100.00
36010;BME280;22076;52.182;5.404;2023-12-20T01:20:52;101761.13;;;13.13;100.00
36010;BME280;22076;52.182;5.404;2023-12-20T01:23:18;101769.41;;;12.70;100.00
36010;BME280;22076;52.182;5.404;2023-12-20T01:25:45;101782.06;;;12.97;100.00
36010;BME280;22076;52.182;5.404;2023-12-20T01:28:11;101784.47;;;12.84;100.00
36010;BME280;22076;52.182;5.404;2023-12-20T01:30:38;101795.22;;;13.13;100.00
36010;BME280;22076;52.182;5.404;2023-12-20T01:33:04;101789.97;;;13.13;100.00
36010;BME280;22076;52.182;5.404;2023-12-20T01:35:31;101794.16;;;13.33;100.00
36010;BME280;22076;52.182;5.404;2023-12-20T01:37:59;101782.84;;;13.66;100.00
36010;BME280;22076;52.182;5.404;2023-12-20T01:40:25;101784.75;;;13.29;100.00
36010;BME280;22076;52.182;5.404;2023-12-20T01:42:58;101781.84;;;13.68;100.00
36010;BME280;22076;52.182;5.404;2023-12-20T01:45:26;101780.19;;;13.50;100.00
36010;BME280;22076;52.182;5.404;2023-12-20T01:47:53;101770.41;;;13.36;100.00
36010;BME280;22076;52.182;5.404;2023-12-20T01:50:19;101759.44;;;13.28;100.00
36010;BME280;22076;52.182;5.404;2023-12-20T01:52:46;101764.78;;;13.60;100.00
36010;BME280;22076;52.182;5.404;2023-12-20T01:55:15;101769.03;;;13.78;100.00
36010;BME280;22076;52.182;5.404;2023-12-20T01:57:42;101762.03;;;13.79;100.00
36010;BME280;22076;52.182;5.404;2023-12-20T02:00:10;101760.91;;;13.83;100.00
36010;BME280;22076;52.182;5.404;2023-12-20T02:02:39;101760.91;;;13.83;100.00
36010;BME280;22076;52.182;5.404;2023-12-20T02:05:06;101768.84;;;13.65;100.00
36010;BME280;22076;52.182;5.404;2023-12-20T02:07:32;101766.91;;;13.69;100.00
36010;BME280;22076;52.182;5.404;2023-12-20T02:10:00;101768.63;;;13.70;100.00
36010;BME280;22076;52.182;5.404;2023-12-20T02:12:28;101770.41;;;13.85;100.00
36010;BME280;22076;52.182;5.404;2023-12-20T02:14:54;101761.66;;;13.69;100.00
36010;BME280;22076;52.182;5.404;2023-12-20T02:17:21;101764.72;;;13.93;100.00
36010;BME280;22076;52.182;5.404;2023-12-20T02:19:49;101764.78;;;13.26;100.00
36010;BME280;22076;52.182;5.404;2023-12-20T02:22:17;101761.69;;;13.02;100.00
36010;BME280;22076;52.182;5.404;2023-12-20T02:24:43;101759.53;;;12.40;100.00
36010;BME280;22076;52.182;5.404;2023-12-20T02:27:10;101767.78;;;12.67;100.00
36010;BME280;22076;52.182;5.404;2023-12-20T02:29:36;101762.94;;;12.42;100.00
36010;BME280;22076;52.182;5.404;2023-12-20T02:32:03;101762.00;;;12.43;100.00
36010;BME280;22076;52.182;5.404;2023-12-20T02:34:30;101750.97;;;12.36;100.00
36010;BME280;22076;52.182;5.404;2023-12-20T02:36:56;101763.41;;;12.50;100.00
36010;BME280;22076;52.182;5.404;2023-12-20T02:39:24;101749.66;;;12.45;100.00
36010;BME280;22076;52.182;5.404;2023-12-20T02:41:50;101756.94;;;12.58;100.00
36010;BME280;22076;52.182;5.404;2023-12-20T02:44:16;101741.41;;;12.35;100.00
36010;BME280;22076;52.182;5.404;2023-12-20T02:46:42;101743.09;;;12.19;100.00
36010;BME280;22076;52.182;5.404;2023-12-20T02:49:09;101737.56;;;12.43;100.00
36010;BME280;22076;52.182;5.404;2023-12-20T02:51:35;101736.88;;;12.56;100.00
36010;BME280;22076;52.182;5.404;2023-12-20T02:54:03;101738.66;;;12.38;100.00
36010;BME280;22076;52.182;5.404;2023-12-20T02:58:58;101729.47;;;12.30;100.00
36010;BME280;22076;52.182;5.404;2023-12-20T03:01:24;101708.56;;;12.46;100.00
36010;BME280;22076;52.182;5.404;2023-12-20T03:03:51;101722.47;;;12.48;100.00
36010;BME280;22076;52.182;5.404;2023-12-20T03:06:17;101725.50;;;12.21;100.00
36010;BME280;22076;52.182;5.404;2023-12-20T03:08:45;101723.53;;;12.44;100.00
36010;BME280;22076;52.182;5.404;2023-12-20T03:11:11;101725.63;;;12.54;100.00
36010;BME280;22076;52.182;5.404;2023-12-20T03:13:39;101718.53;;;12.56;100.00
36010;BME280;22076;52.182;5.404;2023-12-20T03:16:08;101730.03;;;12.54;100.00
36010;BME280;22076;52.182;5.404;2023-12-20T03:18:35;101722.94;;;12.38;100.00
36010;BME280;22076;52.182;5.404;2023-12-20T03:21:02;101723.31;;;12.31;100.00
36010;BME280;22076;52.182;5.404;2023-12-20T03:23:29;101720.44;;;12.35;100.00
36010;BME280;22076;52.182;5.404;2023-12-20T03:25:55;101710.50;;;12.25;100.00
36010;BME280;22076;52.182;5.404;2023-12-20T03:28:22;101700.88;;;12.43;100.00
36010;BME280;22076;52.182;5.404;2023-12-20T03:30:50;101704.28;;;12.45;100.00
36010;BME280;22076;52.182;5.404;2023-12-20T03:33:17;101720.81;;;12.10;100.00
36010;BME280;22076;52.182;5.404;2023-12-20T03:35:43;101707.56;;;12.13;100.00
36010;BME280;22076;52.182;5.404;2023-12-20T03:38:10;101707.88;;;12.25;100.00
36010;BME280;22076;52.182;5.404;2023-12-20T03:40:36;101708.22;;;12.36;100.00
36010;BME280;22076;52.182;5.404;2023-12-20T03:43:03;101713.56;;;12.33;100.00
36010;BME280;22076;52.182;5.404;2023-12-20T03:45:30;101708.78;;;12.23;100.00
36010;BME280;22076;52.182;5.404;2023-12-20T03:47:57;101717.59;;;12.22;100.00
36010;BME280;22076;52.182;5.404;2023-12-20T03:50:24;101715.66;;;12.26;100.00
36010;BME280;22076;52.182;5.404;2023-12-20T03:52:51;101714.19;;;12.20;100.00
36010;BME280;22076;52.182;5.404;2023-12-20T03:55:18;101715.50;;;12.12;100.00
36010;BME280;22076;52.182;5.404;2023-12-20T03:57:44;101711.94;;;11.95;100.00
36010;BME280;22076;52.182;5.404;2023-12-20T04:00:11;101710.25;;;12.12;100.00
36010;BME280;22076;52.182;5.404;2023-12-20T04:02:38;101714.25;;;12.01;100.00
36010;BME280;22076;52.182;5.404;2023-12-20T04:05:08;101715.56;;;12.10;100.00
36010;BME280;22076;52.182;5.404;2023-12-20T04:07:35;101710.41;;;12.09;100.00
36010;BME280;22076;52.182;5.404;2023-12-20T04:10:02;101707.97;;;11.67;100.00
36010;BME280;22076;52.182;5.404;2023-12-20T04:12:29;101699.81;;;11.93;100.00
36010;BME280;22076;52.182;5.404;2023-12-20T04:14:56;101699.47;;;12.00;100.00
36010;BME280;22076;52.182;5.404;2023-12-20T04:17:23;101693.44;;;11.98;100.00
36010;BME280;22076;52.182;5.404;2023-12-20T04:19:49;101700.75;;;11.53;100.00
36010;BME280;22076;52.182;5.404;2023-12-20T04:22:17;101698.22;;;12.07;100.00
36010;BME280;22076;52.182;5.404;2023-12-20T04:24:45;101702.25;;;12.15;100.00
36010;BME280;22076;52.182;5.404;2023-12-20T04:27:11;101709.75;;;11.67;100.00
36010;BME280;22076;52.182;5.404;2023-12-20T04:29:38;101700.91;;;11.69;100.00
36010;BME280;22076;52.182;5.404;2023-12-20T04:32:05;101699.09;;;11.89;100.00
36010;BME280;22076;52.182;5.404;2023-12-20T04:34:32;101699.81;;;11.93;100.00
36010;BME280;22076;52.182;5.404;2023-12-20T04:36:58;101702.38;;;11.75;100.00
36010;BME280;22076;52.182;5.404;2023-12-20T04:39:28;101701.31;;;12.16;100.00
36010;BME280;22076;52.182;5.404;2023-12-20T04:41:54;101706.97;;;11.51;100.00
36010;BME280;22076;52.182;5.404;2023-12-20T04:44:21;101701.16;;;12.01;100.00
36010;BME280;22076;52.182;5.404;2023-12-20T04:46:47;101702.72;;;11.48;100.00
36010;BME280;22076;52.182;5.404;2023-12-20T04:49:14;101699.69;;;11.96;100.00
36010;BME280;22076;52.182;5.404;2023-12-20T04:51:40;101689.09;;;12.16;100.00
36010;BME280;22076;52.182;5.404;2023-12-20T04:54:07;101690.84;;;12.16;100.00
36010;BME280;22076;52.182;5.404;2023-12-20T04:56:35;101681.69;;;12.25;100.00
36010;BME280;22076;52.182;5.404;2023-12-20T04:59:01;101677.91;;;11.95;100.00
36010;BME280;22076;52.182;5.404;2023-12-20T05:01:28;101679.22;;;12.21;100.00
36010;BME280;22076;52.182;5.404;2023-12-20T05:03:54;101681.16;;;12.18;100.00
36010;BME280;22076;52.182;5.404;2023-12-20T05:06:21;101680.38;;;12.33;100.00
36010;BME280;22076;52.182;5.404;2023-12-20T05:08:47;101694.78;;;12.07;100.00
36010;BME280;22076;52.182;5.404;2023-12-20T05:11:14;101693.84;;;12.61;100.00
36010;BME280;22076;52.182;5.404;2023-12-20T05:13:42;101685.16;;;12.43;100.00
36010;BME280;22076;52.182;5.404;2023-12-20T05:16:09;101690.09;;;12.14;100.00
36010;BME280;22076;52.182;5.404;2023-12-20T05:18:35;101688.78;;;12.22;100.00
36010;BME280;22076;52.182;5.404;2023-12-20T05:21:02;101683.13;;;12.13;100.00
36010;BME280;22076;52.182;5.404;2023-12-20T05:23:29;101687.91;;;12.22;100.00
36010;BME280;22076;52.182;5.404;2023-12-20T05:25:55;101698.94;;;11.92;100.00
36010;BME280;22076;52.182;5.404;2023-12-20T05:28:22;101690.09;;;12.14;100.00
36010;BME280;22076;52.182;5.404;2023-12-20T05:30:50;101691.66;;;11.99;100.00
36010;BME280;22076;52.182;5.404;2023-12-20T05:33:16;101695.78;;;12.22;100.00
36010;BME280;22076;52.182;5.404;2023-12-20T05:35:43;101690.16;;;12.12;100.00
36010;BME280;22076;52.182;5.404;2023-12-20T05:38:09;101696.91;;;11.99;100.00
36010;BME280;22076;52.182;5.404;2023-12-20T05:40:36;101693.31;;;12.19;100.00
36010;BME280;22076;52.182;5.404;2023-12-20T05:43:03;101683.94;;;12.15;100.00
36010;BME280;22076;52.182;5.404;2023-12-20T05:45:30;101698.03;;;12.12;100.00
36010;BME280;22076;52.182;5.404;2023-12-20T05:47:58;101685.09;;;12.27;100.00
36010;BME280;22076;52.182;5.404;2023-12-20T05:50:24;101688.38;;;11.95;100.00
36010;BME280;22076;52.182;5.404;2023-12-20T05:52:51;101687.13;;;12.02;100.00
36010;BME280;22076;52.182;5.404;2023-12-20T05:55:17;101690.69;;;12.19;100.00
36010;BME280;22076;52.182;5.404;2023-12-20T05:57:44;101679.19;;;12.04;100.00
36010;BME280;22076;52.182;5.404;2023-12-20T06:00:11;101690.09;;;12.14;100.00
36010;BME280;22076;52.182;5.404;2023-12-20T06:02:38;101675.34;;;12.29;100.00
36010;BME280;22076;52.182;5.404;2023-12-20T06:05:07;101682.63;;;12.41;100.00
36010;BME280;22076;52.182;5.404;2023-12-20T06:07:33;101685.75;;;12.13;100.00
36010;BME280;22076;52.182;5.404;2023-12-20T06:10:00;101688.00;;;12.20;100.00
36010;BME280;22076;52.182;5.404;2023-12-20T06:12:26;101679.19;;;12.04;100.00
36010;BME280;22076;52.182;5.404;2023-12-20T06:14:54;101675.91;;;12.18;100.00
36010;BME280;22076;52.182;5.404;2023-12-20T06:17:20;101678.19;;;12.06;100.00
36010;BME280;22076;52.182;5.404;2023-12-20T06:19:47;101671.38;;;12.21;100.00
36010;BME280;22076;52.182;5.404;2023-12-20T06:22:15;101669.34;;;12.44;100.00
36010;BME280;22076;52.182;5.404;2023-12-20T06:24:41;101663.25;;;12.26;100.00
36010;BME280;22076;52.182;5.404;2023-12-20T06:27:08;101670.75;;;12.16;100.00
36010;BME280;22076;52.182;5.404;2023-12-20T06:29:34;101659.72;;;12.10;100.00
36010;BME280;22076;52.182;5.404;2023-12-20T06:32:01;101675.38;;;11.92;100.00
36010;BME280;22076;52.182;5.404;2023-12-20T06:34:27;101669.59;;;12.22;100.00
36010;BME280;22076;52.182;5.404;2023-12-20T06:36:54;101665.22;;;12.22;100.00
36010;BME280;22076;52.182;5.404;2023-12-20T06:39:22;101666.75;;;12.27;100.00
36010;BME280;22076;52.182;5.404;2023-12-20T06:41:48;101665.66;;;12.31;100.00
36010;BME280;22076;52.182;5.404;2023-12-20T06:44:15;101669.59;;;12.04;100.00
36010;BME280;22076;52.182;5.404;2023-12-20T06:46:41;101668.66;;;12.58;100.00
36010;BME280;22076;52.182;5.404;2023-12-20T06:49:08;101663.88;;;12.49;100.00
36010;BME280;22076;52.182;5.404;2023-12-20T06:51:34;101662.88;;;12.51;100.00
36010;BME280;22076;52.182;5.404;2023-12-20T06:54:01;101658.72;;;12.30;100.00
36010;BME280;22076;52.182;5.404;2023-12-20T06:56:29;101649.59;;;12.54;100.00
36010;BME280;22076;52.182;5.404;2023-12-20T06:59:04;101651.59;;;12.67;100.00
36010;BME280;22076;52.182;5.404;2023-12-20T07:01:31;101653.19;;;12.36;100.00
36010;BME280;22076;52.182;5.404;2023-12-20T07:03:58;101648.16;;;12.14;100.00
36010;BME280;22076;52.182;5.404;2023-12-20T07:06:24;101653.13;;;12.20;100.00
36010;BME280;22076;52.182;5.404;2023-12-20T07:08:52;101656.72;;;12.52;100.00
36010;BME280;22076;52.182;5.404;2023-12-20T07:11:18;101661.56;;;12.43;100.00
36010;BME280;22076;52.182;5.404;2023-12-20T07:13:46;101658.25;;;12.39;100.00
36010;BME280;22076;52.182;5.404;2023-12-20T07:16:13;101649.53;;;12.21;100.00
36010;BME280;22076;52.182;5.404;2023-12-20T07:18:39;101647.25;;;12.50;100.00
36010;BME280;22076;52.182;5.404;2023-12-20T07:21:06;101653.63;;;12.44;100.00
36010;BME280;22076;52.182;5.404;2023-12-20T07:23:33;101636.28;;;12.42;100.00
36010;BME280;22076;52.182;5.404;2023-12-20T07:26:00;101626.06;;;12.37;100.00
36010;BME280;22076;52.182;5.404;2023-12-20T07:28:26;101639.50;;;12.47;100.00
36010;BME280;22076;52.182;5.404;2023-12-20T07:30:54;101648.00;;;12.17;100.00
36010;BME280;22076;52.182;5.404;2023-12-20T07:33:20;101640.91;;;12.36;100.00
36010;BME280;22076;52.182;5.404;2023-12-20T07:35:47;101633.97;;;12.53;100.00
36010;BME280;22076;52.182;5.404;2023-12-20T07:38:13;101627.34;;;12.46;100.00
36010;BME280;22076;52.182;5.404;2023-12-20T07:40:40;101633.75;;;12.58;100.00
36010;BME280;22076;52.182;5.404;2023-12-20T07:43:06;101633.47;;;12.11;100.00
36010;BME280;22076;52.182;5.404;2023-12-20T07:45:33;101636.91;;;12.12;100.00
36010;BME280;22076;52.182;5.404;2023-12-20T07:48:01;101642.97;;;12.65;100.00
36010;BME280;22076;52.182;5.404;2023-12-20T07:50:27;101643.31;;;12.23;100.00
36010;BME280;22076;52.182;5.404;2023-12-20T07:52:54;101649.31;;;12.26;100.00
36010;BME280;22076;52.182;5.404;2023-12-20T07:55:20;101657.94;;;12.10;100.00
36010;BME280;22076;52.182;5.404;2023-12-20T07:57:48;101649.09;;;12.30;100.00
36010;BME280;22076;52.182;5.404;2023-12-20T08:00:15;101652.63;;;12.47;100.00
36010;BME280;22076;52.182;5.404;2023-12-20T08:02:42;101662.00;;;12.51;100.00
36010;BME280;22076;52.182;5.404;2023-12-20T08:05:10;101662.25;;;12.29;100.00
36010;BME280;22076;52.182;5.404;2023-12-20T08:07:36;101653.00;;;12.39;100.00
36010;BME280;22076;52.182;5.404;2023-12-20T08:10:04;101671.28;;;12.40;100.00
36010;BME280;22076;52.182;5.404;2023-12-20T08:12:30;101670.91;;;12.31;100.00
36010;BME280;22076;52.182;5.404;2023-12-20T08:14:57;101668.38;;;12.29;100.00
36010;BME280;22076;52.182;5.404;2023-12-20T08:17:24;101675.31;;;12.30;100.00
36010;BME280;22076;52.182;5.404;2023-12-20T08:19:51;101669.81;;;12.52;100.00
36010;BME280;22076;52.182;5.404;2023-12-20T08:22:19;101676.66;;;12.72;100.00
36010;BME280;22076;52.182;5.404;2023-12-20T08:24:45;101664.50;;;12.36;100.00
36010;BME280;22076;52.182;5.404;2023-12-20T08:27:12;101663.31;;;12.60;100.00
36010;BME280;22076;52.182;5.404;2023-12-20T08:29:38;101663.50;;;12.39;100.00
36010;BME280;22076;52.182;5.404;2023-12-20T08:32:05;101669.19;;;12.65;100.00
36010;BME280;22076;52.182;5.404;2023-12-20T08:34:32;101661.25;;;12.49;100.00
36010;BME280;22076;52.182;5.404;2023-12-20T08:36:59;101648.47;;;12.60;100.00
36010;BME280;22076;52.182;5.404;2023-12-20T08:39:27;101651.03;;;12.78;100.00
36010;BME280;22076;52.182;5.404;2023-12-20T08:41:55;101656.84;;;12.67;100.00
36010;BME280;22076;52.182;5.404;2023-12-20T08:44:21;101648.13;;;12.66;100.00
36010;BME280;22076;52.182;5.404;2023-12-20T08:46:49;101648.78;;;12.36;100.00
36010;BME280;22076;52.182;5.404;2023-12-20T08:49:16;101645.63;;;12.47;100.00
36010;BME280;22076;52.182;5.404;2023-12-20T08:51:43;101649.38;;;12.42;100.00
36010;BME280;22076;52.182;5.404;2023-12-20T08:54:10;101652.84;;;12.60;100.00
36010;BME280;22076;52.182;5.404;2023-12-20T08:56:39;101649.72;;;12.86;100.00
36010;BME280;22076;52.182;5.404;2023-12-20T08:59:06;101655.34;;;12.79;100.00
36010;BME280;22076;52.182;5.404;2023-12-20T09:01:32;101662.03;;;12.84;100.00
36010;BME280;22076;52.182;5.404;2023-12-20T09:03:59;101656.88;;;12.83;100.00
36010;BME280;22076;52.182;5.404;2023-12-20T09:06:25;101655.28;;;12.96;100.00
36010;BME280;22076;52.182;5.404;2023-12-20T09:08:52;101665.44;;;12.86;100.00
36010;BME280;22076;52.182;5.404;2023-12-20T09:11:18;101661.31;;;12.65;100.00
36010;BME280;22076;52.182;5.404;2023-12-20T09:13:46;101652.72;;;12.79;100.00
36010;BME280;22076;52.182;5.404;2023-12-20T09:16:13;101663.25;;;12.61;100.00
36010;BME280;22076;52.182;5.404;2023-12-20T09:18:41;101656.47;;;12.57;100.00
36010;BME280;22076;52.182;5.404;2023-12-20T09:21:07;101650.88;;;12.47;100.00
36010;BME280;22076;52.182;5.404;2023-12-20T09:23:34;101654.00;;;12.54;100.00
36010;BME280;22076;52.182;5.404;2023-12-20T09:26:02;101645.31;;;12.18;100.00
36010;BME280;22076;52.182;5.404;2023-12-20T09:28:28;101641.16;;;12.65;100.00
36010;BME280;22076;52.182;5.404;2023-12-20T09:30:56;101648.28;;;12.63;100.00
36010;BME280;22076;52.182;5.404;2023-12-20T09:33:23;101654.44;;;12.62;100.00
36010;BME280;22076;52.182;5.404;2023-12-20T09:35:50;101654.84;;;12.72;100.00
36010;BME280;22076;52.182;5.404;2023-12-20T09:38:16;101647.88;;;13.04;100.00
36010;BME280;22076;52.182;5.404;2023-12-20T09:40:43;101648.00;;;12.85;100.00
36010;BME280;22076;52.182;5.404;2023-12-20T09:43:11;101639.56;;;12.96;100.00
36010;BME280;22076;52.182;5.404;2023-12-20T09:45:41;101648.84;;;12.86;100.00
36010;BME280;22076;52.182;5.404;2023-12-20T09:48:13;101652.34;;;13.02;100.00
36010;BME280;22076;52.182;5.404;2023-12-20T09:50:40;101648.03;;;12.68;100.00
36010;BME280;22076;52.182;5.404;2023-12-20T09:53:08;101652.03;;;12.75;100.00
36010;BME280;22076;52.182;5.404;2023-12-20T09:55:36;101653.09;;;12.55;100.00
36010;BME280;22076;52.182;5.404;2023-12-20T09:58:03;101651.75;;;12.64;100.00
36010;BME280;22076;52.182;5.404;2023-12-20T10:00:30;101657.00;;;12.97;100.00
36010;BME280;22076;52.182;5.404;2023-12-20T10:02:58;101664.06;;;12.79;100.00
36010;BME280;22076;52.182;5.404;2023-12-20T10:05:28;101668.25;;;12.66;100.00
36010;BME280;22076;52.182;5.404;2023-12-20T10:07:55;101657.00;;;12.97;100.00
36010;BME280;22076;52.182;5.404;2023-12-20T10:10:22;101663.13;;;13.14;100.00
36010;BME280;22076;52.182;5.404;2023-12-20T10:13:01;101678.22;;;12.42;100.00
36010;BME280;22076;52.182;5.404;2023-12-20T10:15:29;101669.22;;;12.81;100.00
36010;BME280;22076;52.182;5.404;2023-12-20T10:17:56;101657.91;;;12.96;100.00
36010;BME280;22076;52.182;5.404;2023-12-20T10:20:23;101666.75;;;13.11;100.00
36010;BME280;22076;52.182;5.404;2023-12-20T10:22:51;101671.91;;;13.13;100.00
36010;BME280;22076;52.182;5.404;2023-12-20T10:25:18;101675.69;;;12.58;100.00
36010;BME280;22076;52.182;5.404;2023-12-20T10:27:45;101659.63;;;13.13;100.00
36010;BME280;22076;52.182;5.404;2023-12-20T10:30:12;101657.63;;;13.34;100.00
36010;BME280;22076;52.182;5.404;2023-12-20T10:32:39;101648.47;;;13.10;100.00
36010;BME280;22076;52.182;5.404;2023-12-20T10:35:07;101657.09;;;13.12;100.00
36010;BME280;22076;52.182;5.404;2023-12-20T10:37:35;101658.09;;;12.93;100.00
36010;BME280;22076;52.182;5.404;2023-12-20T10:40:04;101651.53;;;13.18;100.00
36010;BME280;22076;52.182;5.404;2023-12-20T10:42:31;101649.41;;;13.09;100.00
36010;BME280;22076;52.182;5.404;2023-12-20T10:44:59;101644.59;;;13.33;100.00
36010;BME280;22076;52.182;5.404;2023-12-20T10:47:26;101638.41;;;13.02;100.00
36010;BME280;22076;52.182;5.404;2023-12-20T10:49:53;101635.00;;;13.00;100.00
36010;BME280;22076;52.182;5.404;2023-12-20T10:52:23;101639.72;;;13.43;100.00
36010;BME280;22076;52.182;5.404;2023-12-20T10:54:49;101634.66;;;13.40;100.00
36010;BME280;22076;52.182;5.404;2023-12-20T10:57:18;101613.06;;;13.81;100.00
36010;BME280;22076;52.182;5.404;2023-12-20T10:59:45;101636.78;;;13.31;100.00
36010;BME280;22076;52.182;5.404;2023-12-20T11:02:13;101628.50;;;13.55;100.00
36010;BME280;22076;52.182;5.404;2023-12-20T11:04:47;101643.84;;;13.47;100.00
36010;BME280;22076;52.182;5.404;2023-12-20T11:07:21;101624.97;;;13.40;100.00
36010;BME280;22076;52.182;5.404;2023-12-20T11:09:56;101626.41;;;13.14;100.00
36010;BME280;22076;52.182;5.404;2023-12-20T11:12:34;101615.78;;;13.79;100.00
36010;BME280;22076;52.182;5.404;2023-12-20T11:15:03;101620.47;;;14.04;100.00
36010;BME280;22076;52.182;5.404;2023-12-20T11:17:31;101623.03;;;13.90;100.00
36010;BME280;22076;52.182;5.404;2023-12-20T11:20:09;101620.16;;;13.95;100.00
36010;BME280;22076;52.182;5.404;2023-12-20T11:22:37;101612.19;;;13.50;100.00
36010;BME280;22076;52.182;5.404;2023-12-20T11:25:08;101602.94;;;13.75;100.00
36010;BME280;22076;52.182;5.404;2023-12-20T11:27:40;101595.59;;;13.80;100.00
36010;BME280;22076;52.182;5.404;2023-12-20T11:30:08;101605.47;;;13.76;100.00
36010;BME280;22076;52.182;5.404;2023-12-20T11:32:35;101590.69;;;13.90;100.00
36010;BME280;22076;52.182;5.404;2023-12-20T11:35:17;101601.31;;;14.02;100.00
36010;BME280;22076;52.182;5.404;2023-12-20T11:37:45;101598.47;;;14.21;100.00
36010;BME280;22076;52.182;5.404;2023-12-20T11:40:14;101595.88;;;14.20;100.00
36010;BME280;22076;52.182;5.404;2023-12-20T11:42:44;101588.97;;;14.33;100.00
36010;BME280;22076;52.182;5.404;2023-12-20T11:45:14;101591.78;;;14.30;100.00
36010;BME280;22076;52.182;5.404;2023-12-20T11:47:42;101597.69;;;13.75;100.00
36010;BME280;22076;52.182;5.404;2023-12-20T11:50:09;101582.44;;;13.96;100.00
36010;BME280;22076;52.182;5.404;2023-12-20T11:52:35;101582.16;;;14.00;100.00
36010;BME280;22076;52.182;5.404;2023-12-20T11:55:02;101579.16;;;13.92;100.00
36010;BME280;22076;52.182;5.404;2023-12-20T11:57:29;101577.47;;;14.05;100.00
36010;BME280;22076;52.182;5.404;2023-12-20T11:59:57;101573.00;;;14.08;100.00
36010;BME280;22076;52.182;5.404;2023-12-20T12:02:24;101574.50;;;14.12;100.00
36010;BME280;22076;52.182;5.404;2023-12-20T12:04:50;101579.88;;;14.25;100.00
36010;BME280;22076;52.182;5.404;2023-12-20T12:07:17;101569.56;;;14.21;100.00
36010;BME280;22076;52.182;5.404;2023-12-20T12:09:44;101579.28;;;14.05;100.00
36010;BME280;22076;52.182;5.404;2023-12-20T12:12:11;101578.44;;;14.04;100.00
36010;BME280;22076;52.182;5.404;2023-12-20T12:14:38;101582.66;;;14.07;100.00
36010;BME280;22076;52.182;5.404;2023-12-20T12:17:11;101582.72;;;14.05;100.00
36010;BME280;22076;52.182;5.404;2023-12-20T12:19:38;101587.66;;;13.81;100.00
36010;BME280;22076;52.182;5.404;2023-12-20T12:22:05;101594.72;;;13.95;100.00
36010;BME280;22076;52.182;5.404;2023-12-20T12:24:33;101580.84;;;13.93;100.00
36010;BME280;22076;52.182;5.404;2023-12-20T12:27:00;101562.97;;;13.69;100.00
36010;BME280;22076;52.182;5.404;2023-12-20T12:29:27;101559.38;;;14.01;100.00
36010;BME280;22076;52.182;5.404;2023-12-20T12:31:54;101557.47;;;13.88;100.00
36010;BME280;22076;52.182;5.404;2023-12-20T12:34:22;101549.19;;;13.50;100.00
36010;BME280;22076;52.182;5.404;2023-12-20T12:36:48;101543.84;;;13.82;100.00
36010;BME280;22076;52.182;5.404;2023-12-20T12:39:15;101555.34;;;14.10;100.00
36010;BME280;22076;52.182;5.404;2023-12-20T12:41:43;101540.31;;;13.97;100.00